sensor_id;sensor_type;location;lat;lon;timestamp;pressure;altitude;pressure_sealevel;temperature;humidity
41467;BME280;27205;53.690;19.948;2023-05-12T00:02:33;100782.23;;;7.74;34.91
41467;BME280;27205;53.690;19.948;2023-05-12T00:07:35;100783.40;;;7.68;34.82
41467;BME280;27205;53.690;19.948;2023-05-12T00:12:38;100786.39;;;7.62;34.73
41467;BME280;27205;53.690;19.948;2023-05-12T00:17:40;100788.73;;;7.55;35.00
41467;BME280;27205;53.690;19.948;2023-05-12T00:22:42;100787.14;;;7.50;35.61
41467;BME280;27205;53.690;19.948;2023-05-12T00:27:44;100784.60;;;7.45;35.28
41467;BME280;27205;53.690;19.948;2023-05-12T00:32:46;100786.85;;;7.42;35.39
41467;BME280;27205;53.690;19.948;2023-05-12T00:37:48;100784.36;;;7.39;35.73
41467;BME280;27205;53.690;19.948;2023-05-12T00:42:51;100790.36;;;7.34;36.05
41467;BME280;27205;53.690;19.948;2023-05-12T00:47:53;100786.73;;;7.28;36.30
41467;BME280;27205;53.690;19.948;2023-05-12T00:52:55;100790.36;;;7.24;36.52
41467;BME280;27205;53.690;19.948;2023-05-12T00:57:59;100792.86;;;7.17;36.80
41467;BME280;27205;53.690;19.948;2023-05-12T01:03:01;100797.64;;;7.10;37.08
41467;BME280;27205;53.690;19.948;2023-05-12T01:08:04;100798.13;;;7.06;37.11
41467;BME280;27205;53.690;19.948;2023-05-12T01:13:07;100801.33;;;7.00;37.35
41467;BME280;27205;53.690;19.948;2023-05-12T01:18:10;100806.52;;;6.94;37.46
41467;BME280;27205;53.690;19.948;2023-05-12T01:23:15;100803.16;;;6.90;37.76
41467;BME280;27205;53.690;19.948;2023-05-12T01:28:20;100804.85;;;6.84;37.87
41467;BME280;27205;53.690;19.948;2023-05-12T01:33:22;100811.06;;;6.80;38.24
41467;BME280;27205;53.690;19.948;2023-05-12T01:38:25;100813.55;;;6.74;38.74
41467;BME280;27205;53.690;19.948;2023-05-12T01:43:27;100820.88;;;6.67;38.84
41467;BME280;27205;53.690;19.948;2023-05-12T01:48:29;100822.87;;;6.62;38.90
41467;BME280;27205;53.690;19.948;2023-05-12T01:53:31;100822.95;;;6.57;38.89
41467;BME280;27205;53.690;19.948;2023-05-12T01:58:34;100822.66;;;6.52;39.38
41467;BME280;27205;53.690;19.948;2023-05-12T02:03:36;100829.55;;;6.48;39.44
41467;BME280;27205;53.690;19.948;2023-05-12T02:08:38;100831.75;;;6.43;39.61
41467;BME280;27205;53.690;19.948;2023-05-12T02:13:41;100835.80;;;6.37;40.16
41467;BME280;27205;53.690;19.948;2023-05-12T02:18:46;100836.70;;;6.29;40.42
41467;BME280;27205;53.690;19.948;2023-05-12T02:23:49;100838.34;;;6.22;40.85
41467;BME280;27205;53.690;19.948;2023-05-12T02:28:51;100842.02;;;6.13;40.98
41467;BME280;27205;53.690;19.948;2023-05-12T02:33:54;100842.35;;;6.08;41.12
41467;BME280;27205;53.690;19.948;2023-05-12T02:38:56;100842.19;;;6.03;41.55
41467;BME280;27205;53.690;19.948;2023-05-12T02:43:58;100844.95;;;5.97;41.73
41467;BME280;27205;53.690;19.948;2023-05-12T02:49:00;100848.97;;;5.95;41.91
41467;BME280;27205;53.690;19.948;2023-05-12T02:54:02;100850.52;;;5.92;41.98
41467;BME280;27205;53.690;19.948;2023-05-12T02:59:04;100849.13;;;5.91;42.46
41467;BME280;27205;53.690;19.948;2023-05-12T03:04:06;100853.64;;;5.92;42.56
41467;BME280;27205;53.690;19.948;2023-05-12T03:09:09;100854.80;;;5.92;42.66
41467;BME280;27205;53.690;19.948;2023-05-12T03:14:11;100853.38;;;5.94;42.91
41467;BME280;27205;53.690;19.948;2023-05-12T03:19:13;100854.70;;;5.99;42.90
41467;BME280;27205;53.690;19.948;2023-05-12T03:24:15;100855.11;;;6.06;43.27
41467;BME280;27205;53.690;19.948;2023-05-12T03:29:17;100858.02;;;6.14;43.39
41467;BME280;27205;53.690;19.948;2023-05-12T03:34:20;100858.61;;;6.29;43.25
41467;BME280;27205;53.690;19.948;2023-05-12T03:39:22;100865.45;;;6.43;43.48
41467;BME280;27205;53.690;19.948;2023-05-12T03:44:25;100864.66;;;6.56;43.44
41467;BME280;27205;53.690;19.948;2023-05-12T03:49:28;100868.27;;;6.72;43.38
41467;BME280;27205;53.690;19.948;2023-05-12T03:54:30;100872.20;;;6.84;43.80
41467;BME280;27205;53.690;19.948;2023-05-12T03:59:32;100877.36;;;7.01;43.88
41467;BME280;27205;53.690;19.948;2023-05-12T04:04:34;100876.85;;;7.17;43.95
41467;BME280;27205;53.690;19.948;2023-05-12T04:09:37;100878.16;;;7.35;43.77
41467;BME280;27205;53.690;19.948;2023-05-12T04:14:39;100884.55;;;7.57;43.47
41467;BME280;27205;53.690;19.948;2023-05-12T04:19:45;100882.53;;;7.79;43.85
41467;BME280;27205;53.690;19.948;2023-05-12T04:24:47;100884.70;;;8.03;43.52
41467;BME280;27205;53.690;19.948;2023-05-12T04:29:50;100886.42;;;8.25;43.49
41467;BME280;27205;53.690;19.948;2023-05-12T04:34:52;100889.41;;;8.49;43.22
41467;BME280;27205;53.690;19.948;2023-05-12T04:39:57;100895.25;;;8.73;43.36
41467;BME280;27205;53.690;19.948;2023-05-12T04:44:59;100900.59;;;9.00;42.96
41467;BME280;27205;53.690;19.948;2023-05-12T04:50:02;100906.23;;;9.25;42.86
41467;BME280;27205;53.690;19.948;2023-05-12T04:55:05;100906.98;;;9.47;43.08
41467;BME280;27205;53.690;19.948;2023-05-12T05:00:09;100908.05;;;9.75;42.76
41467;BME280;27205;53.690;19.948;2023-05-12T05:05:11;100912.66;;;10.03;42.76
41467;BME280;27205;53.690;19.948;2023-05-12T05:10:13;100919.42;;;10.25;42.87
41467;BME280;27205;53.690;19.948;2023-05-12T05:15:15;100923.61;;;10.49;42.50
41467;BME280;27205;53.690;19.948;2023-05-12T05:20:18;100923.81;;;10.73;42.58
41467;BME280;27205;53.690;19.948;2023-05-12T05:25:21;100926.73;;;10.97;42.49
41467;BME280;27205;53.690;19.948;2023-05-12T05:30:23;100926.25;;;11.20;42.37
41467;BME280;27205;53.690;19.948;2023-05-12T05:35:25;100931.80;;;11.44;42.45
41467;BME280;27205;53.690;19.948;2023-05-12T05:40:27;100931.85;;;11.70;42.49
41467;BME280;27205;53.690;19.948;2023-05-12T05:45:39;100932.89;;;12.01;42.10
41467;BME280;27205;53.690;19.948;2023-05-12T05:50:42;100935.45;;;12.29;42.14
41467;BME280;27205;53.690;19.948;2023-05-12T05:55:45;100938.02;;;12.53;42.15
41467;BME280;27205;53.690;19.948;2023-05-12T06:00:47;100942.20;;;12.90;41.77
41467;BME280;27205;53.690;19.948;2023-05-12T06:05:50;100944.89;;;13.25;41.83
41467;BME280;27205;53.690;19.948;2023-05-12T06:10:52;100954.27;;;13.72;41.36
41467;BME280;27205;53.690;19.948;2023-05-12T06:15:55;100959.17;;;14.06;41.25
41467;BME280;27205;53.690;19.948;2023-05-12T06:20:57;100965.92;;;14.38;40.83
41467;BME280;27205;53.690;19.948;2023-05-12T06:25:59;100968.43;;;14.63;40.57
41467;BME280;27205;53.690;19.948;2023-05-12T06:31:01;100974.18;;;14.85;40.27
41467;BME280;27205;53.690;19.948;2023-05-12T06:36:04;100972.38;;;14.99;40.07
41467;BME280;27205;53.690;19.948;2023-05-12T06:41:06;100973.92;;;15.13;39.65
41467;BME280;27205;53.690;19.948;2023-05-12T06:46:09;100978.55;;;15.29;39.48
41467;BME280;27205;53.690;19.948;2023-05-12T06:51:11;100978.17;;;15.45;39.36
41467;BME280;27205;53.690;19.948;2023-05-12T06:56:14;100977.38;;;15.63;39.00
41467;BME280;27205;53.690;19.948;2023-05-12T07:01:17;100973.30;;;15.78;38.67
41467;BME280;27205;53.690;19.948;2023-05-12T07:06:20;100970.98;;;15.94;38.52
41467;BME280;27205;53.690;19.948;2023-05-12T07:11:22;100970.02;;;16.14;38.34
41467;BME280;27205;53.690;19.948;2023-05-12T07:16:25;100967.19;;;16.36;38.15
41467;BME280;27205;53.690;19.948;2023-05-12T07:21:27;100968.25;;;16.59;37.53
41467;BME280;27205;53.690;19.948;2023-05-12T07:26:30;100971.48;;;16.78;37.38
41467;BME280;27205;53.690;19.948;2023-05-12T07:31:33;100966.70;;;16.96;37.18
41467;BME280;27205;53.690;19.948;2023-05-12T07:36:35;100962.94;;;17.13;36.75
41467;BME280;27205;53.690;19.948;2023-05-12T07:41:38;100968.40;;;17.31;36.04
41467;BME280;27205;53.690;19.948;2023-05-12T07:46:40;100974.99;;;17.46;35.79
41467;BME280;27205;53.690;19.948;2023-05-12T07:51:43;100976.77;;;17.62;35.36
41467;BME280;27205;53.690;19.948;2023-05-12T07:56:45;100980.63;;;17.80;34.86
41467;BME280;27205;53.690;19.948;2023-05-12T08:01:47;100976.89;;;17.94;34.39
41467;BME280;27205;53.690;19.948;2023-05-12T08:06:50;100979.48;;;18.02;33.83
41467;BME280;27205;53.690;19.948;2023-05-12T08:11:52;100978.75;;;18.19;33.50
41467;BME280;27205;53.690;19.948;2023-05-12T08:16:54;100979.35;;;18.38;33.20
41467;BME280;27205;53.690;19.948;2023-05-12T08:21:56;100977.52;;;18.49;32.68
41467;BME280;27205;53.690;19.948;2023-05-12T08:26:58;100981.10;;;18.63;32.01
41467;BME280;27205;53.690;19.948;2023-05-12T08:32:01;100980.29;;;18.72;31.12
41467;BME280;27205;53.690;19.948;2023-05-12T08:37:04;100977.60;;;18.82;30.66
41467;BME280;27205;53.690;19.948;2023-05-12T08:47:22;100980.20;;;19.01;29.84
41467;BME280;27205;53.690;19.948;2023-05-12T08:52:32;100977.84;;;19.10;29.59
41467;BME280;27205;53.690;19.948;2023-05-12T08:57:35;100976.02;;;19.19;29.44
41467;BME280;27205;53.690;19.948;2023-05-12T09:02:42;100968.02;;;19.31;29.10
41467;BME280;27205;53.690;19.948;2023-05-12T09:07:55;100968.75;;;19.43;28.99
41467;BME280;27205;53.690;19.948;2023-05-12T09:13:02;100969.48;;;19.53;28.73
41467;BME280;27205;53.690;19.948;2023-05-12T09:18:05;100962.47;;;19.58;28.16
41467;BME280;27205;53.690;19.948;2023-05-12T09:28:15;100963.48;;;19.78;27.63
41467;BME280;27205;53.690;19.948;2023-05-12T09:33:18;100963.14;;;19.87;27.51
41467;BME280;27205;53.690;19.948;2023-05-12T09:38:20;100960.71;;;20.02;27.35
41467;BME280;27205;53.690;19.948;2023-05-12T09:43:22;100958.52;;;20.08;27.04
41467;BME280;27205;53.690;19.948;2023-05-12T09:48:24;100951.54;;;20.16;26.94
41467;BME280;27205;53.690;19.948;2023-05-12T09:53:28;100952.63;;;20.29;27.05
41467;BME280;27205;53.690;19.948;2023-05-12T09:58:31;100954.27;;;20.42;27.08
41467;BME280;27205;53.690;19.948;2023-05-12T10:03:35;100954.30;;;20.52;26.76
41467;BME280;27205;53.690;19.948;2023-05-12T10:08:54;100948.58;;;20.59;26.69
41467;BME280;27205;53.690;19.948;2023-05-12T10:13:59;100942.54;;;20.64;26.62
41467;BME280;27205;53.690;19.948;2023-05-12T10:19:02;100942.63;;;20.70;26.29
41467;BME280;27205;53.690;19.948;2023-05-12T10:24:05;100944.42;;;20.85;26.30
41467;BME280;27205;53.690;19.948;2023-05-12T10:29:08;100943.35;;;20.93;26.03
41467;BME280;27205;53.690;19.948;2023-05-12T10:34:16;100944.50;;;21.08;26.09
41467;BME280;27205;53.690;19.948;2023-05-12T10:39:19;100940.09;;;21.23;25.93
41467;BME280;27205;53.690;19.948;2023-05-12T10:44:26;100932.29;;;21.37;26.08
41467;BME280;27205;53.690;19.948;2023-05-12T10:49:38;100925.33;;;21.49;25.84
41467;BME280;27205;53.690;19.948;2023-05-12T10:54:43;100927.21;;;21.59;25.60
41467;BME280;27205;53.690;19.948;2023-05-12T10:59:55;100922.49;;;21.61;25.24
41467;BME280;27205;53.690;19.948;2023-05-12T11:11:00;100912.92;;;21.77;25.27
41467;BME280;27205;53.690;19.948;2023-05-12T11:16:05;100908.87;;;21.85;25.21
41467;BME280;27205;53.690;19.948;2023-05-12T11:21:09;100910.67;;;21.98;25.02
41467;BME280;27205;53.690;19.948;2023-05-12T11:26:17;100905.89;;;22.03;24.98
41467;BME280;27205;53.690;19.948;2023-05-12T11:31:20;100904.46;;;22.12;24.88
41467;BME280;27205;53.690;19.948;2023-05-12T11:36:23;100904.51;;;22.23;24.72
41467;BME280;27205;53.690;19.948;2023-05-12T11:41:25;100908.30;;;22.37;24.57
41467;BME280;27205;53.690;19.948;2023-05-12T11:46:28;100906.20;;;22.38;24.26
41467;BME280;27205;53.690;19.948;2023-05-12T11:51:30;100901.67;;;22.41;24.02
41467;BME280;27205;53.690;19.948;2023-05-12T11:56:32;100902.45;;;22.48;24.02
41467;BME280;27205;53.690;19.948;2023-05-12T12:01:43;100896.23;;;22.63;24.11
41467;BME280;27205;53.690;19.948;2023-05-12T12:06:47;100901.64;;;22.83;24.20
41467;BME280;27205;53.690;19.948;2023-05-12T12:11:49;100902.10;;;22.94;23.96
41467;BME280;27205;53.690;19.948;2023-05-12T12:16:51;100904.14;;;23.09;23.92
41467;BME280;27205;53.690;19.948;2023-05-12T12:21:54;100902.75;;;23.18;23.65
41467;BME280;27205;53.690;19.948;2023-05-12T12:26:56;100906.00;;;23.16;23.55
41467;BME280;27205;53.690;19.948;2023-05-12T12:31:58;100903.29;;;23.26;23.54
41467;BME280;27205;53.690;19.948;2023-05-12T12:37:00;100895.67;;;23.40;23.41
41467;BME280;27205;53.690;19.948;2023-05-12T12:42:02;100885.15;;;23.51;23.43
41467;BME280;27205;53.690;19.948;2023-05-12T12:47:05;100878.04;;;23.73;23.39
41467;BME280;27205;53.690;19.948;2023-05-12T12:52:07;100878.86;;;23.86;23.12
41467;BME280;27205;53.690;19.948;2023-05-12T12:57:09;100885.08;;;23.85;23.13
41467;BME280;27205;53.690;19.948;2023-05-12T13:02:11;100884.30;;;23.95;23.02
41467;BME280;27205;53.690;19.948;2023-05-12T13:07:13;100875.56;;;24.05;22.78
41467;BME280;27205;53.690;19.948;2023-05-12T13:12:16;100874.84;;;24.21;22.77
41467;BME280;27205;53.690;19.948;2023-05-12T13:17:18;100870.59;;;24.33;22.66
41467;BME280;27205;53.690;19.948;2023-05-12T13:22:20;100867.65;;;24.35;22.51
41467;BME280;27205;53.690;19.948;2023-05-12T13:27:22;100864.92;;;24.53;22.57
41467;BME280;27205;53.690;19.948;2023-05-12T13:32:24;100863.02;;;24.91;22.42
41467;BME280;27205;53.690;19.948;2023-05-12T13:37:27;100859.56;;;25.09;22.29
41467;BME280;27205;53.690;19.948;2023-05-12T13:42:29;100858.21;;;25.22;22.26
41467;BME280;27205;53.690;19.948;2023-05-12T13:47:31;100856.83;;;25.64;21.97
41467;BME280;27205;53.690;19.948;2023-05-12T13:52:33;100860.21;;;27.74;21.57
41467;BME280;27205;53.690;19.948;2023-05-12T13:57:35;100865.79;;;31.83;20.17
41467;BME280;27205;53.690;19.948;2023-05-12T14:02:37;100882.98;;;35.62;19.74
41467;BME280;27205;53.690;19.948;2023-05-12T14:07:39;100880.89;;;39.16;18.03
41467;BME280;27205;53.690;19.948;2023-05-12T14:12:43;100882.05;;;41.79;17.39
41467;BME280;27205;53.690;19.948;2023-05-12T14:17:45;100874.73;;;40.63;16.66
41467;BME280;27205;53.690;19.948;2023-05-12T14:22:47;100870.73;;;38.57;16.19
41467;BME280;27205;53.690;19.948;2023-05-12T14:27:50;100876.83;;;39.68;15.65
41467;BME280;27205;53.690;19.948;2023-05-12T14:32:52;100882.20;;;41.30;14.88
41467;BME280;27205;53.690;19.948;2023-05-12T14:37:54;100887.27;;;46.68;13.27
41467;BME280;27205;53.690;19.948;2023-05-12T14:42:57;100891.11;;;50.79;12.47
41467;BME280;27205;53.690;19.948;2023-05-12T14:47:59;100889.27;;;53.49;11.26
41467;BME280;27205;53.690;19.948;2023-05-12T14:53:01;100889.13;;;54.06;10.66
41467;BME280;27205;53.690;19.948;2023-05-12T14:58:03;100881.25;;;52.49;10.13
41467;BME280;27205;53.690;19.948;2023-05-12T15:03:05;100884.83;;;54.21;9.29
41467;BME280;27205;53.690;19.948;2023-05-12T15:08:08;100880.11;;;56.01;8.25
41467;BME280;27205;53.690;19.948;2023-05-12T15:13:11;100877.84;;;57.02;7.46
41467;BME280;27205;53.690;19.948;2023-05-12T15:18:14;100879.39;;;57.79;7.26
41467;BME280;27205;53.690;19.948;2023-05-12T15:23:16;100885.58;;;58.64;6.95
41467;BME280;27205;53.690;19.948;2023-05-12T15:28:18;100891.28;;;59.39;6.48
41467;BME280;27205;53.690;19.948;2023-05-12T15:33:21;100888.19;;;59.50;6.40
41467;BME280;27205;53.690;19.948;2023-05-12T15:38:23;100884.75;;;58.50;6.06
41467;BME280;27205;53.690;19.948;2023-05-12T15:43:25;100883.93;;;58.98;5.76
41467;BME280;27205;53.690;19.948;2023-05-12T15:48:29;100877.99;;;58.86;5.59
41467;BME280;27205;53.690;19.948;2023-05-12T15:53:31;100873.00;;;58.60;5.75
41467;BME280;27205;53.690;19.948;2023-05-12T15:58:33;100873.13;;;58.47;5.44
41467;BME280;27205;53.690;19.948;2023-05-12T16:03:36;100870.46;;;58.16;5.29
41467;BME280;27205;53.690;19.948;2023-05-12T16:08:38;100870.58;;;57.47;5.23
41467;BME280;27205;53.690;19.948;2023-05-12T16:13:40;100862.31;;;56.46;5.18
41467;BME280;27205;53.690;19.948;2023-05-12T16:18:43;100856.89;;;55.01;5.20
41467;BME280;27205;53.690;19.948;2023-05-12T16:23:45;100850.11;;;53.81;5.35
41467;BME280;27205;53.690;19.948;2023-05-12T16:28:47;100839.54;;;50.92;5.77
41467;BME280;27205;53.690;19.948;2023-05-12T16:33:49;100835.08;;;48.46;6.13
41467;BME280;27205;53.690;19.948;2023-05-12T16:38:52;100837.68;;;49.11;6.26
41467;BME280;27205;53.690;19.948;2023-05-12T16:43:54;100841.92;;;49.93;6.15
41467;BME280;27205;53.690;19.948;2023-05-12T16:48:57;100835.57;;;45.50;6.77
41467;BME280;27205;53.690;19.948;2023-05-12T16:53:59;100824.25;;;40.86;7.58
41467;BME280;27205;53.690;19.948;2023-05-12T16:59:01;100828.84;;;37.46;8.37
41467;BME280;27205;53.690;19.948;2023-05-12T17:04:04;100823.41;;;35.13;9.01
41467;BME280;27205;53.690;19.948;2023-05-12T17:09:07;100822.61;;;33.17;9.81
41467;BME280;27205;53.690;19.948;2023-05-12T17:14:10;100825.71;;;33.26;10.18
41467;BME280;27205;53.690;19.948;2023-05-12T17:19:13;100829.11;;;35.38;10.16
41467;BME280;27205;53.690;19.948;2023-05-12T17:24:16;100832.13;;;36.89;9.98
41467;BME280;27205;53.690;19.948;2023-05-12T17:29:18;100830.44;;;36.00;10.19
41467;BME280;27205;53.690;19.948;2023-05-12T17:34:21;100832.30;;;33.94;10.79
41467;BME280;27205;53.690;19.948;2023-05-12T17:39:23;100828.61;;;31.73;11.24
41467;BME280;27205;53.690;19.948;2023-05-12T17:44:24;100831.60;;;30.57;11.81
41467;BME280;27205;53.690;19.948;2023-05-12T17:49:26;100838.06;;;29.23;12.35
41467;BME280;27205;53.690;19.948;2023-05-12T17:54:28;100833.06;;;27.58;12.91
41467;BME280;27205;53.690;19.948;2023-05-12T17:59:30;100838.52;;;26.31;13.49
41467;BME280;27205;53.690;19.948;2023-05-12T18:04:33;100840.67;;;25.50;14.11
41467;BME280;27205;53.690;19.948;2023-05-12T18:09:35;100844.35;;;25.35;14.54
41467;BME280;27205;53.690;19.948;2023-05-12T18:14:37;100846.33;;;24.88;15.00
41467;BME280;27205;53.690;19.948;2023-05-12T18:19:39;100850.92;;;24.18;15.49
41467;BME280;27205;53.690;19.948;2023-05-12T18:24:41;100854.00;;;23.06;16.04
41467;BME280;27205;53.690;19.948;2023-05-12T18:29:44;100853.48;;;21.94;16.45
41467;BME280;27205;53.690;19.948;2023-05-12T18:34:46;100846.98;;;21.02;17.10
41467;BME280;27205;53.690;19.948;2023-05-12T18:39:48;100853.45;;;20.17;17.82
41467;BME280;27205;53.690;19.948;2023-05-12T18:44:51;100856.27;;;19.44;18.35
41467;BME280;27205;53.690;19.948;2023-05-12T18:49:54;100861.15;;;18.75;19.04
41467;BME280;27205;53.690;19.948;2023-05-12T18:54:56;100866.50;;;18.19;19.26
41467;BME280;27205;53.690;19.948;2023-05-12T18:59:58;100869.38;;;17.68;19.71
41467;BME280;27205;53.690;19.948;2023-05-12T19:05:00;100879.95;;;17.20;20.04
41467;BME280;27205;53.690;19.948;2023-05-12T19:10:03;100887.09;;;16.80;20.48
41467;BME280;27205;53.690;19.948;2023-05-12T19:15:06;100887.77;;;16.40;21.04
41467;BME280;27205;53.690;19.948;2023-05-12T19:20:09;100886.70;;;16.01;21.32
41467;BME280;27205;53.690;19.948;2023-05-12T19:25:11;100887.65;;;15.69;21.71
41467;BME280;27205;53.690;19.948;2023-05-12T19:30:18;100891.27;;;15.37;22.77
41467;BME280;27205;53.690;19.948;2023-05-12T19:35:20;100893.28;;;15.12;22.87
41467;BME280;27205;53.690;19.948;2023-05-12T19:40:23;100895.39;;;14.98;23.01
41467;BME280;27205;53.690;19.948;2023-05-12T19:45:25;100894.46;;;14.60;23.25
41467;BME280;27205;53.690;19.948;2023-05-12T19:50:28;100899.17;;;14.35;24.10
41467;BME280;27205;53.690;19.948;2023-05-12T19:55:30;100899.35;;;14.11;24.23
41467;BME280;27205;53.690;19.948;2023-05-12T20:00:32;100904.11;;;13.89;24.73
41467;BME280;27205;53.690;19.948;2023-05-12T20:05:34;100900.52;;;13.69;25.06
41467;BME280;27205;53.690;19.948;2023-05-12T20:10:39;100905.64;;;13.51;25.90
41467;BME280;27205;53.690;19.948;2023-05-12T20:15:41;100901.73;;;13.34;26.79
41467;BME280;27205;53.690;19.948;2023-05-12T20:20:44;100899.05;;;13.19;27.28
41467;BME280;27205;53.690;19.948;2023-05-12T20:29:26;100902.72;;;12.91;27.78
41467;BME280;27205;53.690;19.948;2023-05-12T20:34:30;100901.59;;;12.76;27.98
41467;BME280;27205;53.690;19.948;2023-05-12T20:39:33;100899.13;;;12.62;28.44
41467;BME280;27205;53.690;19.948;2023-05-12T20:44:37;100901.40;;;12.46;28.96
41467;BME280;27205;53.690;19.948;2023-05-12T20:49:40;100901.13;;;12.32;29.25
41467;BME280;27205;53.690;19.948;2023-05-12T20:54:44;100905.41;;;12.15;29.67
41467;BME280;27205;53.690;19.948;2023-05-12T20:59:48;100905.61;;;12.00;30.07
41467;BME280;27205;53.690;19.948;2023-05-12T21:04:54;100913.46;;;11.90;31.36
41467;BME280;27205;53.690;19.948;2023-05-12T21:09:58;100915.61;;;11.81;31.39
41467;BME280;27205;53.690;19.948;2023-05-12T21:15:03;100918.79;;;11.73;31.55
41467;BME280;27205;53.690;19.948;2023-05-12T21:20:08;100920.08;;;11.64;31.35
41467;BME280;27205;53.690;19.948;2023-05-12T21:25:12;100920.00;;;11.56;31.59
41467;BME280;27205;53.690;19.948;2023-05-12T21:30:15;100915.11;;;11.45;31.95
41467;BME280;27205;53.690;19.948;2023-05-12T21:35:19;100919.27;;;11.30;32.04
41467;BME280;27205;53.690;19.948;2023-05-12T21:40:22;100925.00;;;11.16;32.34
41467;BME280;27205;53.690;19.948;2023-05-12T21:45:26;100923.05;;;11.00;32.70
41467;BME280;27205;53.690;19.948;2023-05-12T21:50:30;100926.63;;;10.86;32.75
41467;BME280;27205;53.690;19.948;2023-05-12T21:55:33;100926.49;;;10.75;32.86
41467;BME280;27205;53.690;19.948;2023-05-12T22:00:36;100924.48;;;10.61;33.13
41467;BME280;27205;53.690;19.948;2023-05-12T22:05:40;100926.55;;;10.46;33.16
41467;BME280;27205;53.690;19.948;2023-05-12T22:10:44;100924.05;;;10.34;33.56
41467;BME280;27205;53.690;19.948;2023-05-12T22:15:47;100920.45;;;10.29;34.09
41467;BME280;27205;53.690;19.948;2023-05-12T22:20:51;100922.63;;;10.26;34.26
41467;BME280;27205;53.690;19.948;2023-05-12T22:25:55;100924.76;;;10.16;34.58
41467;BME280;27205;53.690;19.948;2023-05-12T22:30:58;100922.91;;;10.05;35.13
41467;BME280;27205;53.690;19.948;2023-05-12T22:36:02;100922.54;;;9.92;35.27
41467;BME280;27205;53.690;19.948;2023-05-12T22:41:05;100925.67;;;9.79;35.87
41467;BME280;27205;53.690;19.948;2023-05-12T22:46:09;100926.31;;;9.67;36.07
41467;BME280;27205;53.690;19.948;2023-05-12T22:51:12;100931.24;;;9.57;36.68
41467;BME280;27205;53.690;19.948;2023-05-12T22:56:16;100935.67;;;9.51;37.44
41467;BME280;27205;53.690;19.948;2023-05-12T23:01:19;100932.02;;;9.47;37.69
41467;BME280;27205;53.690;19.948;2023-05-12T23:06:23;100929.78;;;9.39;37.99
41467;BME280;27205;53.690;19.948;2023-05-12T23:11:26;100931.21;;;9.30;38.34
41467;BME280;27205;53.690;19.948;2023-05-12T23:16:30;100929.95;;;9.22;38.57
41467;BME280;27205;53.690;19.948;2023-05-12T23:21:33;100929.05;;;9.10;38.66
41467;BME280;27205;53.690;19.948;2023-05-12T23:26:37;100931.70;;;8.99;38.75
41467;BME280;27205;53.690;19.948;2023-05-12T23:31:40;100930.85;;;8.93;39.41
41467;BME280;27205;53.690;19.948;2023-05-12T23:36:44;100929.95;;;8.89;40.03
41467;BME280;27205;53.690;19.948;2023-05-12T23:41:48;100932.33;;;8.88;39.57
41467;BME280;27205;53.690;19.948;2023-05-12T23:46:51;100925.21;;;8.84;40.17
41467;BME280;27205;53.690;19.948;2023-05-12T23:51:55;100925.98;;;8.76;40.42
41467;BME280;27205;53.690;19.948;2023-05-12T23:56:59;100924.41;;;8.69;40.39
